Date,TemperatureHighF,TemperatureAvgF,TemperatureLowF,DewpointHighF,DewpointAvgF,DewpointLowF,HumidityHigh,HumidityAvg,HumidityLow,PressureMaxIn,PressureMinIn,WindSpeedMaxMPH,WindSpeedAvgMPH,GustSpeedMaxMPH,PrecipitationSumIn
2013-6-1,76,69,62,68,61,58,93,78,63,29.83,29.70,25,7,26,0.14
2013-6-2,64,54,46,60,49,41,92,83,70,30.06,29.75,23,7,25,0.00
2013-6-3,66,55,43,48,42,38,94,64,40,30.12,30.04,15,4,16,0.00
2013-6-4,74,62,48,49,44,38,77,54,31,30.17,30.09,15,4,15,0.00
2013-6-5,78,68,59,51,47,42,68,49,33,30.12,29.92,13,4,13,0.00
2013-6-6,70,62,55,55,48,41,82,62,46,29.93,29.86,26,7,26,0.01
2013-6-7,67,60,54,55,48,37,89,68,43,29.94,29.88,22,5,22,0.00
2013-6-8,75,64,52,53,48,42,81,57,40,30.03,29.91,16,4,16,0.00
2013-6-9,82,72,61,63,54,47,86,57,34,30.02,29.85,20,4,20,0.00
2013-6-10,77,68,61,66,63,60,96,84,62,29.89,29.77,15,3,15,0.72
2013-6-11,84,71,59,67,62,52,97,75,46,29.95,29.84,31,3,31,0.22
2013-6-12,88,75,66,73,68,62,94,81,56,29.94,29.62,38,4,38,1.41
2013-6-13,69,63,57,64,56,51,96,78,58,30.05,29.61,26,6,27,0.01
2013-6-14,74,64,55,60,55,51,92,73,56,30.13,30.01,15,4,17,0.00
2013-6-15,74,68,61,66,61,55,86,79,67,30.09,29.92,16,3,16,0.06
2013-6-16,81,74,67,67,64,62,89,74,56,29.96,29.89,26,5,27,0.00
2013-6-17,86,77,67,65,58,49,89,58,31,29.97,29.87,19,4,19,0.00
2013-6-18,72,65,59,62,57,51,90,76,64,30.06,29.91,24,6,26,0.00
2013-6-19,76,67,58,54,48,45,69,53,39,30.16,30.06,15,4,16,0.00
2013-6-20,85,74,62,65,57,46,74,56,44,30.19,30.11,11,3,11,0.00
2013-6-21,86,74,67,69,64,60,93,73,47,30.20,29.94,38,4,38,1.14
2013-6-22,84,75,70,72,67,62,86,77,63,30.11,29.99,15,4,15,0.00
2013-6-23,86,75,68,70,66,63,90,74,57,30.08,30.00,17,4,18,0.00
2013-6-24,84,73,66,72,66,61,91,80,60,30.10,29.92,28,5,29,0.60
2013-6-25,87,76,69,73,69,63,92,79,60,30.00,29.83,24,4,24,0.03
2013-6-26,80,72,65,71,67,63,95,85,73,29.92,29.74,26,4,26,2.08
2013-6-27,90,76,67,71,67,63,96,75,45,29.81,29.69,20,3,20,0.00
2013-6-28,82,73,66,66,62,55,90,71,41,29.71,29.61,17,3,17,0.03
2013-6-29,74,66,64,64,62,60,93,86,71,29.75,29.59,22,4,22,0.01
2013-6-30,73,68,65,63,59,55,92,74,61,29.97,29.74,23,7,27,0.00